createdAt,value
2022-09-07T00:00:15.510Z,75.32
2022-09-07T00:01:17.028Z,75.20
2022-09-07T00:02:18.523Z,75.27
2022-09-07T00:03:20.880Z,75.17
2022-09-07T00:04:22.517Z,75.24
2022-09-07T00:05:24.030Z,75.19
2022-09-07T00:06:25.570Z,75.31
2022-09-07T00:07:27.035Z,75.44
2022-09-07T00:08:28.572Z,75.28
2022-09-07T00:09:30.077Z,75.32
2022-09-07T00:10:31.560Z,75.47
2022-09-07T00:11:33.193Z,75.40
2022-09-07T00:12:34.715Z,75.77
2022-09-07T00:13:38.663Z,75.35
2022-09-07T00:14:40.171Z,75.24
2022-09-07T00:15:43.024Z,75.54
2022-09-07T00:16:44.557Z,75.58
2022-09-07T00:17:46.050Z,75.06
2022-09-07T00:18:47.966Z,74.86
2022-09-07T00:19:49.446Z,74.71
2022-09-07T00:20:58.485Z,74.54
2022-09-07T00:21:59.986Z,74.80
2022-09-07T00:23:01.449Z,75.13
2022-09-07T00:24:03.380Z,74.78
2022-09-07T00:25:05.935Z,74.63
2022-09-07T00:26:09.593Z,74.57
2022-09-07T00:27:11.074Z,74.53
2022-09-07T00:28:12.549Z,74.35
2022-09-07T00:29:14.090Z,74.13
2022-09-07T00:30:15.819Z,74.25
2022-09-07T00:31:20.412Z,74.19
2022-09-07T00:32:22.106Z,74.08
2022-09-07T00:33:23.608Z,73.76
2022-09-07T00:34:25.110Z,73.72
2022-09-07T00:35:26.651Z,74.25
2022-09-07T00:36:28.447Z,74.08
2022-09-07T00:37:29.953Z,74.49
2022-09-07T00:38:31.778Z,74.43
2022-09-07T00:39:33.449Z,74.06
2022-09-07T00:40:35.239Z,73.94
2022-09-07T00:41:36.782Z,74.24
2022-09-07T00:42:38.251Z,74.21
2022-09-07T00:43:42.112Z,73.76
2022-09-07T00:45:01.744Z,74.19
2022-09-07T00:46:05.357Z,74.03
2022-09-07T00:47:11.548Z,73.64
2022-09-07T00:48:17.582Z,73.53
2022-09-07T00:49:22.821Z,73.79
2022-09-07T00:50:29.893Z,73.79
2022-09-07T00:51:36.749Z,74.01
2022-09-07T00:52:41.867Z,74.05
2022-09-07T00:53:46.967Z,73.93
2022-09-07T00:54:53.181Z,74.30
2022-09-07T00:55:56.538Z,74.23
2022-09-07T00:56:58.282Z,74.03
2022-09-07T00:58:00.120Z,74.32
2022-09-07T00:59:01.884Z,73.99
2022-09-07T01:00:05.379Z,74.09
2022-09-07T01:01:07.806Z,73.84
2022-09-07T01:02:11.474Z,73.92
2022-09-07T01:03:15.852Z,74.37
2022-09-07T01:04:18.277Z,74.54
2022-09-07T01:05:27.423Z,74.83
2022-09-07T01:06:32.159Z,74.80
2022-09-07T01:07:33.720Z,75.18
2022-09-07T01:08:35.336Z,74.95
2022-09-07T01:09:38.253Z,75.19
2022-09-07T01:10:40.368Z,74.95
2022-09-07T01:11:43.070Z,75.05
2022-09-07T01:12:44.565Z,74.75
2022-09-07T01:13:47.241Z,74.46
2022-09-07T01:14:51.533Z,74.70
2022-09-07T01:15:59.679Z,74.95
2022-09-07T01:17:11.145Z,74.90
2022-09-07T01:18:18.235Z,74.79
2022-09-07T01:20:04.453Z,75.21
2022-09-07T01:21:25.752Z,75.92
2022-09-07T01:22:46.633Z,76.12
2022-09-07T01:24:32.636Z,75.90
2022-09-07T01:25:42.751Z,76.02
2022-09-07T01:27:23.540Z,77.13
2022-09-07T01:28:28.446Z,76.54
2022-09-07T01:29:35.445Z,76.08
2022-09-07T01:30:39.160Z,75.72
2022-09-07T01:31:52.303Z,75.83
2022-09-07T01:33:15.097Z,76.36
2022-09-07T01:34:21.729Z,76.24
2022-09-07T01:35:44.113Z,76.83
2022-09-07T01:36:52.241Z,77.46
2022-09-07T01:38:02.737Z,76.54
2022-09-07T01:39:05.692Z,76.82
2022-09-07T01:40:11.331Z,77.36
2022-09-07T01:41:18.991Z,77.51
2022-09-07T01:42:24.339Z,77.38
2022-09-07T01:43:35.241Z,76.63
2022-09-07T01:44:41.933Z,77.51
2022-09-07T01:45:45.363Z,77.30
2022-09-07T01:46:52.513Z,77.78
2022-09-07T01:47:56.902Z,78.10
2022-09-07T01:49:04.527Z,77.84
2022-09-07T01:50:12.058Z,78.05
2022-09-07T01:51:15.289Z,78.97
2022-09-07T01:52:25.875Z,78.34
2022-09-07T01:53:33.560Z,78.16
2022-09-07T01:54:41.880Z,79.10
2022-09-07T01:55:46.632Z,78.73
2022-09-07T01:56:53.820Z,78.67
2022-09-07T01:58:01.704Z,79.56
2022-09-07T01:59:08.975Z,79.61
2022-09-07T02:00:14.216Z,79.63
2022-09-07T02:01:23.701Z,79.61
2022-09-07T02:02:30.735Z,79.76
2022-09-07T02:03:38.421Z,80.15
2022-09-07T02:04:44.310Z,79.84
2022-09-07T02:05:52.615Z,79.47
2022-09-07T02:06:59.176Z,79.49
2022-09-07T02:08:08.544Z,79.40
2022-09-07T02:09:16.803Z,80.43
2022-09-07T02:10:24.026Z,80.73
2022-09-07T02:11:30.120Z,80.29
2022-09-07T02:12:47.134Z,79.86
2022-09-07T02:13:54.239Z,80.36
2022-09-07T02:15:00.865Z,80.98
2022-09-07T02:16:06.193Z,81.05
2022-09-07T02:17:13.660Z,81.27
2022-09-07T02:18:15.177Z,81.94
2022-09-07T02:19:19.793Z,82.50
2022-09-07T02:20:25.009Z,82.36
2022-09-07T02:21:31.480Z,82.65
2022-09-07T02:22:38.448Z,83.01
2022-09-07T02:23:45.415Z,83.22
2022-09-07T02:24:52.202Z,83.13
2022-09-07T02:25:58.844Z,83.80
2022-09-07T02:27:04.360Z,84.69
2022-09-07T02:28:10.052Z,84.98
2022-09-07T02:29:11.575Z,84.35
2022-09-07T02:30:14.579Z,84.06
2022-09-07T02:31:16.334Z,85.31
2022-09-07T02:32:18.285Z,86.09
2022-09-07T02:33:19.887Z,86.01
2022-09-07T02:34:21.946Z,86.20
2022-09-07T02:35:23.493Z,85.68
2022-09-07T02:36:28.270Z,85.92
2022-09-07T02:37:31.132Z,86.01
2022-09-07T02:38:33.807Z,85.60
2022-09-07T02:39:35.484Z,85.39
2022-09-07T02:40:37.008Z,84.96
2022-09-07T02:41:40.243Z,85.12
2022-09-07T02:42:42.791Z,84.97
2022-09-07T02:43:44.320Z,85.10
2022-09-07T02:44:46.585Z,84.73
2022-09-07T02:46:07.156Z,84.77
2022-09-07T02:47:20.292Z,85.09
2022-09-07T02:48:31.413Z,85.16
2022-09-07T02:49:45.168Z,85.62
2022-09-07T02:50:56.483Z,85.48
2022-09-07T02:52:03.686Z,86.03
2022-09-07T02:53:21.874Z,85.84
2022-09-07T02:54:40.504Z,85.18
2022-09-07T02:55:52.707Z,85.50
2022-09-07T02:57:04.209Z,85.13
2022-09-07T02:58:19.148Z,85.52
2022-09-07T02:59:38.209Z,85.52
2022-09-07T03:00:45.926Z,85.55
2022-09-07T03:01:56.769Z,85.58
2022-09-07T03:03:06.842Z,85.70
2022-09-07T03:04:13.508Z,85.77
2022-09-07T03:05:20.316Z,85.42
2022-09-07T03:06:26.359Z,85.60
2022-09-07T03:07:35.667Z,85.83
2022-09-07T03:08:41.890Z,85.80
2022-09-07T03:09:47.115Z,85.53
2022-09-07T03:10:49.876Z,85.24
2022-09-07T03:11:52.191Z,85.29
2022-09-07T03:12:53.691Z,85.60
2022-09-07T03:14:13.768Z,85.89
2022-09-07T03:15:17.690Z,86.03
2022-09-07T03:16:19.206Z,85.34
2022-09-07T03:17:22.055Z,85.46
2022-09-07T03:18:24.160Z,85.32
2022-09-07T03:19:25.667Z,85.38
2022-09-07T03:20:27.223Z,85.36
2022-09-07T03:21:28.676Z,85.43
2022-09-07T03:22:30.137Z,85.65
2022-09-07T03:23:31.725Z,85.50
2022-09-07T03:24:33.376Z,85.45
2022-09-07T03:25:35.085Z,85.44
2022-09-07T03:26:40.105Z,85.28
2022-09-07T03:27:42.048Z,85.44
2022-09-07T03:28:43.534Z,85.18
2022-09-07T03:29:44.999Z,85.15
2022-09-07T03:30:46.595Z,85.35
2022-09-07T03:31:48.152Z,85.90
2022-09-07T03:32:51.028Z,85.22
2022-09-07T03:33:52.492Z,85.17
2022-09-07T03:34:53.970Z,85.19
2022-09-07T03:35:59.674Z,85.01
2022-09-07T03:37:01.126Z,85.08
2022-09-07T03:38:02.624Z,85.04
2022-09-07T03:39:05.341Z,85.32
2022-09-07T03:40:09.638Z,85.13
2022-09-07T03:41:11.193Z,85.68
2022-09-07T03:42:12.646Z,85.56
2022-09-07T03:43:14.141Z,85.47
2022-09-07T03:44:15.626Z,85.70
2022-09-07T03:45:17.567Z,86.49
2022-09-07T03:46:19.548Z,86.80
2022-09-07T03:47:21.224Z,86.88
2022-09-07T03:48:24.318Z,86.87
2022-09-07T03:49:25.866Z,86.75
2022-09-07T03:50:27.345Z,87.23
2022-09-07T03:51:28.856Z,87.07
2022-09-07T03:52:30.393Z,87.24
2022-09-07T03:53:33.344Z,87.56
2022-09-07T03:54:37.810Z,87.80
2022-09-07T03:55:41.011Z,87.87
2022-09-07T03:56:42.505Z,88.08
2022-09-07T03:57:43.969Z,87.69
2022-09-07T03:58:46.568Z,87.45
2022-09-07T03:59:48.424Z,87.52
2022-09-07T04:00:49.901Z,87.57
2022-09-07T04:01:51.469Z,87.86
2022-09-07T04:02:53.009Z,87.34
2022-09-07T04:04:02.161Z,87.09
2022-09-07T04:05:04.666Z,86.94
2022-09-07T04:06:06.319Z,86.90
2022-09-07T04:07:07.795Z,87.04
2022-09-07T04:08:09.264Z,87.11
2022-09-07T04:09:13.291Z,87.17
2022-09-07T04:10:14.879Z,86.81
2022-09-07T04:11:18.177Z,86.79
2022-09-07T04:12:19.650Z,86.95
2022-09-07T04:13:21.130Z,87.01
2022-09-07T04:14:22.676Z,86.97
2022-09-07T04:15:24.280Z,87.21
2022-09-07T04:16:27.593Z,86.86
2022-09-07T04:17:29.100Z,86.80
2022-09-07T04:18:30.675Z,86.63
2022-09-07T04:19:33.577Z,86.79
2022-09-07T04:20:35.035Z,86.57
2022-09-07T04:21:36.523Z,86.62
2022-09-07T04:22:38.014Z,86.71
2022-09-07T04:23:39.791Z,86.84
2022-09-07T04:24:41.328Z,87.19
2022-09-07T04:25:47.321Z,86.94
2022-09-07T04:26:48.820Z,87.33
2022-09-07T04:27:50.329Z,87.14
2022-09-07T04:28:52.736Z,87.22
2022-09-07T04:29:54.203Z,86.87
2022-09-07T04:30:55.761Z,87.46
2022-09-07T04:31:57.317Z,87.56
2022-09-07T04:32:58.811Z,87.71
2022-09-07T04:34:00.297Z,87.68
2022-09-07T04:35:03.891Z,87.84
2022-09-07T04:36:05.736Z,87.69
2022-09-07T04:37:07.205Z,87.55
2022-09-07T04:38:13.613Z,88.07
2022-09-07T04:39:15.126Z,88.85
2022-09-07T04:40:16.804Z,89.47
2022-09-07T04:41:18.830Z,89.29
2022-09-07T04:42:21.030Z,89.72
2022-09-07T04:43:22.516Z,89.24
2022-09-07T04:44:24.013Z,89.40
2022-09-07T04:45:25.590Z,89.26
2022-09-07T04:46:29.153Z,89.22
2022-09-07T04:47:30.739Z,89.49
2022-09-07T04:48:32.234Z,89.74
2022-09-07T04:49:33.691Z,89.53
2022-09-07T04:50:36.641Z,89.10
2022-09-07T04:51:39.240Z,89.65
2022-09-07T04:52:40.848Z,89.53
2022-09-07T04:53:42.401Z,89.09
2022-09-07T04:54:44.219Z,89.53
2022-09-07T04:55:45.725Z,89.57
2022-09-07T04:56:47.222Z,89.90
2022-09-07T04:57:49.214Z,89.69
2022-09-07T04:58:51.357Z,89.84
2022-09-07T04:59:52.807Z,89.98
2022-09-07T05:00:54.590Z,90.23
2022-09-07T05:01:56.129Z,90.20
2022-09-07T05:02:57.668Z,90.10
2022-09-07T05:03:59.844Z,90.84
2022-09-07T05:05:02.865Z,90.46
2022-09-07T05:06:07.415Z,90.38
2022-09-07T05:07:08.933Z,90.41
2022-09-07T05:08:10.963Z,90.31
2022-09-07T05:09:12.435Z,90.15
2022-09-07T05:10:13.927Z,90.17
2022-09-07T05:11:16.730Z,90.07
2022-09-07T05:12:18.201Z,89.85
2022-09-07T05:13:20.326Z,90.33
2022-09-07T05:14:21.819Z,90.17
2022-09-07T05:15:23.323Z,90.42
2022-09-07T05:16:25.666Z,90.23
2022-09-07T05:17:27.299Z,90.13
2022-09-07T05:18:28.805Z,90.08
2022-09-07T05:19:30.526Z,90.39
2022-09-07T05:20:32.073Z,90.55
2022-09-07T05:21:35.282Z,91.51
2022-09-07T05:22:36.736Z,91.57
2022-09-07T05:23:38.827Z,91.97
2022-09-07T05:24:40.300Z,92.37
2022-09-07T05:25:43.665Z,92.71
2022-09-07T05:26:45.137Z,93.18
2022-09-07T05:27:46.646Z,93.36
2022-09-07T05:28:48.789Z,93.47
2022-09-07T05:30:06.276Z,93.46
2022-09-07T05:31:17.979Z,93.08
2022-09-07T05:32:20.505Z,92.82
2022-09-07T05:33:22.445Z,92.46
2022-09-07T05:35:29.388Z,92.07
2022-09-07T05:36:30.853Z,91.09
2022-09-07T05:37:33.751Z,90.72
2022-09-07T05:38:36.356Z,90.42
2022-09-07T05:39:37.868Z,90.75
2022-09-07T05:40:40.793Z,90.13
2022-09-07T05:41:42.631Z,89.76
2022-09-07T05:42:44.307Z,89.06
2022-09-07T05:45:09.046Z,88.50
2022-09-07T05:46:11.422Z,88.24
2022-09-07T05:47:13.485Z,88.13
2022-09-07T05:48:15.005Z,88.61
2022-09-07T05:49:16.480Z,89.57
2022-09-07T05:50:17.992Z,89.67
2022-09-07T05:51:19.497Z,89.74
2022-09-07T05:52:21.235Z,89.74
2022-09-07T05:53:24.081Z,89.95
2022-09-07T05:54:25.589Z,90.39
2022-09-07T05:55:30.850Z,90.67
2022-09-07T05:56:33.901Z,90.36
2022-09-07T05:57:35.366Z,90.48
2022-09-07T05:58:36.986Z,91.16
2022-09-07T05:59:38.488Z,91.23
2022-09-07T06:00:40.001Z,90.90
2022-09-07T06:01:41.500Z,90.60
2022-09-07T06:02:43.091Z,90.03
2022-09-07T06:03:44.984Z,89.87
2022-09-07T06:04:46.562Z,88.73
2022-09-07T06:05:48.032Z,88.50
2022-09-07T06:07:17.726Z,89.10
2022-09-07T06:08:10.965Z,89.07
2022-09-07T06:09:13.784Z,88.54
2022-09-07T06:11:36.834Z,89.14
2022-09-07T06:12:38.331Z,89.61
2022-09-07T06:13:39.988Z,90.09
2022-09-07T06:14:41.455Z,89.82
2022-09-07T06:15:42.955Z,89.88
2022-09-07T06:16:44.496Z,89.24
2022-09-07T06:17:46.044Z,88.99
2022-09-07T06:18:49.301Z,88.83
2022-09-07T06:19:50.779Z,88.46
2022-09-07T06:20:52.244Z,87.72
2022-09-07T06:21:53.721Z,88.01
2022-09-07T06:22:55.205Z,87.76
2022-09-07T06:23:56.699Z,87.68
2022-09-07T06:24:59.487Z,87.08
2022-09-07T06:26:01.373Z,86.96
2022-09-07T06:27:02.912Z,87.46
2022-09-07T06:28:04.388Z,86.76
2022-09-07T06:29:06.075Z,86.75
2022-09-07T06:30:08.660Z,86.79
2022-09-07T06:31:11.816Z,86.78
2022-09-07T06:33:35.404Z,88.43
2022-09-07T06:34:37.000Z,89.11
2022-09-07T06:35:38.459Z,89.90
2022-09-07T06:36:39.930Z,89.58
2022-09-07T06:37:42.092Z,89.87
2022-09-07T06:38:44.182Z,90.16
2022-09-07T06:39:45.738Z,90.36
2022-09-07T06:40:48.797Z,90.52
2022-09-07T06:42:58.938Z,91.54
2022-09-07T06:44:00.456Z,91.40
2022-09-07T06:45:01.955Z,91.79
2022-09-07T06:47:25.355Z,92.27
2022-09-07T06:48:27.722Z,91.68
2022-09-07T06:49:29.256Z,92.22
2022-09-07T06:50:30.749Z,92.20
2022-09-07T06:51:32.211Z,91.60
2022-09-07T06:55:19.706Z,91.88
2022-09-07T06:56:23.847Z,92.37
2022-09-07T06:57:25.311Z,92.80
2022-09-07T06:58:27.242Z,92.58
2022-09-07T06:59:28.765Z,92.19
2022-09-07T07:00:30.252Z,92.83
2022-09-07T07:01:32.006Z,93.14
2022-09-07T07:02:33.539Z,93.36
2022-09-07T07:03:35.125Z,93.42
2022-09-07T07:04:40.798Z,93.79
2022-09-07T07:05:43.850Z,94.47
2022-09-07T07:06:45.330Z,93.92
2022-09-07T07:07:46.888Z,93.86
2022-09-07T07:08:48.401Z,93.90
2022-09-07T07:09:49.951Z,93.42
2022-09-07T07:10:52.635Z,94.13
2022-09-07T07:11:55.467Z,93.69
2022-09-07T07:12:57.751Z,93.28
2022-09-07T07:14:00.018Z,93.92
2022-09-07T07:15:01.514Z,93.36
2022-09-07T07:16:04.429Z,93.24
2022-09-07T07:17:05.975Z,92.97
2022-09-07T07:18:20.240Z,93.36
2022-09-07T07:19:22.285Z,93.39
2022-09-07T07:20:23.938Z,93.08
2022-09-07T07:21:25.410Z,92.21
2022-09-07T07:22:46.006Z,92.44
2022-09-07T07:23:50.254Z,92.18
2022-09-07T07:24:51.732Z,91.11
2022-09-07T07:25:53.205Z,91.11
2022-09-07T07:26:55.993Z,90.74
2022-09-07T07:27:57.662Z,91.23
2022-09-07T07:30:06.495Z,91.12
2022-09-07T07:31:11.293Z,91.59
2022-09-07T07:32:14.465Z,92.04
2022-09-07T07:33:15.982Z,92.06
2022-09-07T07:34:17.555Z,91.79
2022-09-07T07:35:19.324Z,91.72
2022-09-07T07:36:22.273Z,91.89
2022-09-07T07:37:27.802Z,91.56
2022-09-07T07:42:37.417Z,92.42
2022-09-07T07:43:39.426Z,92.29
2022-09-07T07:44:40.867Z,91.16
2022-09-07T07:46:01.280Z,90.44
2022-09-07T07:47:05.513Z,89.85
2022-09-07T07:48:06.964Z,89.21
2022-09-07T07:49:09.032Z,88.49
2022-09-07T07:52:50.019Z,88.12
2022-09-07T07:54:15.696Z,87.36
2022-09-07T07:56:38.539Z,85.97
2022-09-07T07:57:41.296Z,85.74
2022-09-07T07:58:45.592Z,86.27
2022-09-07T07:59:47.017Z,86.18
2022-09-07T08:00:54.629Z,86.18
2022-09-07T08:01:57.000Z,85.15
2022-09-07T08:02:58.600Z,84.38
2022-09-07T08:04:00.068Z,84.30
2022-09-07T08:05:01.639Z,84.18
2022-09-07T08:06:07.827Z,84.00
2022-09-07T08:07:11.166Z,83.93
2022-09-07T08:08:12.869Z,83.44
2022-09-07T08:09:14.578Z,83.48
2022-09-07T08:10:16.058Z,82.48
2022-09-07T08:11:19.090Z,81.82
2022-09-07T08:12:20.630Z,81.87
2022-09-07T08:13:23.367Z,81.52
2022-09-07T08:14:25.056Z,81.53
2022-09-07T08:15:26.527Z,81.33
2022-09-07T08:16:28.027Z,81.54
2022-09-07T08:17:29.497Z,81.53
2022-09-07T08:18:32.909Z,80.08
2022-09-07T08:19:34.321Z,79.88
2022-09-07T08:20:35.795Z,78.93
2022-09-07T08:21:37.480Z,78.87
2022-09-07T08:22:38.914Z,78.08
2022-09-07T08:23:41.293Z,77.55
2022-09-07T08:24:42.724Z,77.36
2022-09-07T08:25:51.859Z,77.35
2022-09-07T08:26:53.343Z,77.26
2022-09-07T08:27:54.811Z,76.55
2022-09-07T08:28:57.595Z,75.56
2022-09-07T08:29:59.287Z,75.86
2022-09-07T08:31:04.348Z,75.18
2022-09-07T08:32:06.637Z,74.22
2022-09-07T08:33:08.245Z,73.95
2022-09-07T08:34:10.013Z,73.82
2022-09-07T08:35:11.441Z,73.17
2022-09-07T08:36:15.086Z,72.12
2022-09-07T08:37:16.513Z,71.49
2022-09-07T08:38:20.915Z,71.13
2022-09-07T08:39:22.601Z,71.27
2022-09-07T08:40:24.042Z,70.66
2022-09-07T08:41:38.383Z,70.30
2022-09-07T08:42:53.847Z,70.44
2022-09-07T08:44:01.581Z,69.59
2022-09-07T08:45:06.328Z,69.08
2022-09-07T08:46:15.585Z,69.13
2022-09-07T08:47:27.017Z,70.09
2022-09-07T08:48:32.232Z,69.93
2022-09-07T08:49:41.281Z,70.32
2022-09-07T08:50:53.669Z,70.01
2022-09-07T08:51:58.460Z,69.37
2022-09-07T08:53:07.194Z,69.64
2022-09-07T08:54:12.455Z,69.13
2022-09-07T08:55:19.533Z,68.47
2022-09-07T08:56:31.514Z,69.17
2022-09-07T08:57:38.865Z,68.68
2022-09-07T08:58:49.115Z,67.99
2022-09-07T09:00:01.901Z,68.58
2022-09-07T09:02:36.531Z,67.81
2022-09-07T09:05:18.182Z,68.70
2022-09-07T09:06:27.465Z,69.35
2022-09-07T09:07:35.959Z,68.80
2022-09-07T09:08:51.628Z,68.93
2022-09-07T09:10:12.559Z,68.42
2022-09-07T09:11:21.244Z,69.09
2022-09-07T09:12:34.330Z,69.05
2022-09-07T09:13:54.954Z,69.04
2022-09-07T09:15:09.040Z,68.08
2022-09-07T09:16:14.923Z,68.48
2022-09-07T09:17:27.849Z,68.90
2022-09-07T09:18:48.138Z,68.38
2022-09-07T09:19:57.518Z,68.43
2022-09-07T09:21:00.376Z,68.53
2022-09-07T09:22:17.265Z,69.67
2022-09-07T09:23:20.380Z,69.01
2022-09-07T09:24:31.843Z,69.07
2022-09-07T09:25:35.421Z,69.71
2022-09-07T09:26:39.040Z,69.05
2022-09-07T09:27:40.488Z,69.16
2022-09-07T09:28:41.932Z,69.30
2022-09-07T09:29:43.463Z,68.89
2022-09-07T09:30:46.261Z,68.60
2022-09-07T09:31:47.939Z,67.45
2022-09-07T09:32:51.206Z,67.44
2022-09-07T09:34:12.863Z,66.64
2022-09-07T09:35:19.442Z,65.36
2022-09-07T09:36:31.031Z,65.71
2022-09-07T09:37:37.542Z,66.24
2022-09-07T09:38:40.219Z,66.47
2022-09-07T09:39:41.647Z,66.10
2022-09-07T09:40:52.229Z,65.47
2022-09-07T09:41:54.017Z,65.52
2022-09-07T09:43:01.037Z,66.30
2022-09-07T09:44:03.316Z,66.65
2022-09-07T09:45:14.665Z,65.92
2022-09-07T09:46:22.646Z,65.31
2022-09-07T09:47:31.262Z,65.37
2022-09-07T09:48:36.398Z,66.53
2022-09-07T09:49:39.886Z,66.76
2022-09-07T09:52:36.552Z,66.70
2022-09-07T09:53:46.829Z,65.96
2022-09-07T09:54:51.425Z,64.11
2022-09-07T09:55:54.253Z,64.39
2022-09-07T09:56:56.015Z,64.99
2022-09-07T10:03:57.388Z,64.19
2022-09-07T10:05:00.883Z,64.22
2022-09-07T10:06:05.216Z,63.93
2022-09-07T10:07:18.993Z,63.25
2022-09-07T10:08:24.837Z,63.56
2022-09-07T10:09:37.965Z,62.45
2022-09-07T10:10:50.797Z,62.93
2022-09-07T10:12:12.876Z,62.09
2022-09-07T10:13:20.792Z,62.17
2022-09-07T10:14:27.711Z,61.45
2022-09-07T10:15:35.435Z,61.68
2022-09-07T10:16:41.425Z,61.48
2022-09-07T10:17:48.490Z,61.72
2022-09-07T10:18:55.635Z,62.36
2022-09-07T10:20:00.183Z,63.39
2022-09-07T10:21:13.457Z,62.79
2022-09-07T10:22:31.371Z,61.61
2022-09-07T10:23:32.921Z,62.46
2022-09-07T10:24:38.821Z,61.60
2022-09-07T10:25:41.795Z,60.67
2022-09-07T10:26:43.284Z,60.63
2022-09-07T10:27:44.753Z,60.99
2022-09-07T10:30:15.421Z,61.76
2022-09-07T10:31:21.606Z,61.41
2022-09-07T10:32:30.000Z,61.68
2022-09-07T10:34:25.755Z,61.71
2022-09-07T10:35:16.174Z,61.83
2022-09-07T10:36:25.251Z,60.96
2022-09-07T10:37:37.783Z,61.17
2022-09-07T10:38:45.148Z,61.46
2022-09-07T10:40:01.762Z,60.29
2022-09-07T10:41:05.824Z,59.96
2022-09-07T10:42:22.391Z,60.06
2022-09-07T10:43:39.289Z,59.62
2022-09-07T10:44:53.472Z,59.60
2022-09-07T10:46:56.338Z,60.33
2022-09-07T10:47:53.376Z,59.10
2022-09-07T10:49:10.919Z,58.28
2022-09-07T10:50:23.603Z,59.32
2022-09-07T10:51:34.774Z,58.03
2022-09-07T10:52:44.798Z,58.75
2022-09-07T10:54:30.134Z,58.56
2022-09-07T10:55:20.291Z,57.65
2022-09-07T10:56:26.090Z,58.83
2022-09-07T10:57:40.216Z,58.55
2022-09-07T10:59:03.904Z,57.79
2022-09-07T11:00:10.734Z,57.67
2022-09-07T11:01:19.975Z,57.70
2022-09-07T11:02:31.065Z,57.06
2022-09-07T11:03:51.044Z,57.31
2022-09-07T11:05:05.507Z,57.14
2022-09-07T11:06:15.129Z,57.25
2022-09-07T11:07:31.341Z,57.65
2022-09-07T11:10:17.937Z,57.33
2022-09-07T11:12:00.836Z,57.05
2022-09-07T11:12:50.704Z,55.97
2022-09-07T11:14:11.924Z,56.00
2022-09-07T11:15:18.617Z,57.94
2022-09-07T11:17:52.823Z,56.77
2022-09-07T11:20:28.141Z,55.71
2022-09-07T11:23:10.862Z,55.62
2022-09-07T11:24:22.278Z,54.47
2022-09-07T11:25:30.437Z,55.10
2022-09-07T11:26:39.631Z,53.28
2022-09-07T11:27:47.050Z,52.30
2022-09-07T11:30:20.655Z,52.08
2022-09-07T11:31:25.292Z,53.49
2022-09-07T11:32:31.944Z,53.86
2022-09-07T11:33:36.984Z,53.75
2022-09-07T11:34:45.151Z,53.87
2022-09-07T11:35:52.673Z,53.30
2022-09-07T11:37:00.728Z,53.19
2022-09-07T11:38:10.473Z,51.65
2022-09-07T11:39:16.793Z,51.28
2022-09-07T11:40:24.600Z,52.23
2022-09-07T11:41:28.864Z,52.84
2022-09-07T11:42:49.053Z,51.99
2022-09-07T11:43:59.352Z,54.18
2022-09-07T11:45:05.361Z,53.75
2022-09-07T11:46:13.097Z,53.74
2022-09-07T11:47:24.740Z,54.04
2022-09-07T11:48:33.067Z,51.72
2022-09-07T11:49:34.652Z,52.44
2022-09-07T11:50:38.651Z,51.08
2022-09-07T11:51:45.963Z,50.04
2022-09-07T11:52:53.527Z,50.55
2022-09-07T11:54:01.141Z,50.78
2022-09-07T11:55:07.658Z,51.62
2022-09-07T11:56:14.209Z,50.08
2022-09-07T11:57:41.736Z,49.67
2022-09-07T11:59:01.122Z,49.40
2022-09-07T12:00:06.894Z,48.94
2022-09-07T12:01:19.717Z,51.97
2022-09-07T12:02:58.927Z,51.00
2022-09-07T12:04:21.310Z,52.34
2022-09-07T12:05:31.290Z,51.41
2022-09-07T12:06:55.095Z,53.30
2022-09-07T12:08:14.041Z,53.76
2022-09-07T12:09:39.472Z,51.74
2022-09-07T12:10:55.289Z,52.86
2022-09-07T12:12:25.097Z,55.18
2022-09-07T12:13:49.384Z,52.94
2022-09-07T12:15:07.161Z,51.94
2022-09-07T12:16:16.499Z,50.85
2022-09-07T12:17:41.172Z,51.75
2022-09-07T12:19:08.442Z,51.47
2022-09-07T12:20:18.183Z,52.26
2022-09-07T12:21:39.894Z,51.93
2022-09-07T12:23:02.205Z,53.33
2022-09-07T12:24:32.266Z,53.78
2022-09-07T12:25:35.031Z,50.96
2022-09-07T12:26:50.280Z,51.63
2022-09-07T12:27:52.586Z,51.00
2022-09-07T12:29:20.018Z,52.12
2022-09-07T12:30:54.254Z,51.50
2022-09-07T12:31:58.760Z,53.84
2022-09-07T12:33:02.707Z,54.83
2022-09-07T12:34:37.532Z,58.18
2022-09-07T12:35:40.291Z,55.44
2022-09-07T12:36:49.013Z,58.19
2022-09-07T12:37:50.464Z,58.70
2022-09-07T12:39:22.292Z,58.88
2022-09-07T12:40:56.652Z,59.55
2022-09-07T12:42:38.175Z,57.59
2022-09-07T12:44:07.085Z,61.40
2022-09-07T12:45:49.261Z,57.72
2022-09-07T12:46:53.891Z,58.96
2022-09-07T12:47:58.640Z,56.18
2022-09-07T12:49:06.472Z,55.27
2022-09-07T12:50:28.490Z,53.69
2022-09-07T12:53:24.400Z,54.30
2022-09-07T12:54:34.775Z,54.71
2022-09-07T12:57:30.232Z,55.64
2022-09-07T12:58:47.113Z,59.19
2022-09-07T13:00:00.612Z,56.58
2022-09-07T13:01:15.241Z,57.99
2022-09-07T13:02:48.976Z,56.52
2022-09-07T13:04:18.483Z,56.31
2022-09-07T13:05:37.675Z,55.56
2022-09-07T13:07:03.780Z,59.81
2022-09-07T13:08:45.856Z,61.48
2022-09-07T13:09:55.916Z,62.08
2022-09-07T13:11:16.195Z,61.10
2022-09-07T13:14:05.324Z,61.95
2022-09-07T13:15:37.652Z,61.42
2022-09-07T13:18:02.773Z,56.48
2022-09-07T13:19:06.059Z,55.28
2022-09-07T13:20:26.999Z,56.28
2022-09-07T13:21:40.561Z,56.86
2022-09-07T13:23:07.340Z,56.79
2022-09-07T13:24:46.519Z,54.14
2022-09-07T13:25:52.734Z,53.55
2022-09-07T13:26:58.574Z,52.52
2022-09-07T13:28:01.477Z,53.71
2022-09-07T13:29:11.429Z,51.75
2022-09-07T13:30:27.566Z,51.26
2022-09-07T13:31:42.759Z,49.98
2022-09-07T13:34:20.472Z,52.00
2022-09-07T13:35:24.051Z,54.35
2022-09-07T13:36:37.520Z,57.40
2022-09-07T13:37:45.891Z,53.87
2022-09-07T13:38:50.189Z,55.30
2022-09-07T13:39:55.029Z,51.24
2022-09-07T13:41:05.143Z,52.85
2022-09-07T13:42:07.253Z,52.81
2022-09-07T13:43:15.865Z,51.33
2022-09-07T13:44:26.277Z,52.67
2022-09-07T13:45:31.572Z,52.71
2022-09-07T13:46:50.225Z,51.94
2022-09-07T13:47:58.236Z,48.56
2022-09-07T13:49:08.620Z,51.96
2022-09-07T13:50:18.576Z,52.97
2022-09-07T13:51:26.888Z,49.36
2022-09-07T13:52:42.502Z,48.95
2022-09-07T13:53:59.115Z,50.52
2022-09-07T13:55:20.697Z,47.32
2022-09-07T13:56:37.527Z,49.52
2022-09-07T13:57:50.832Z,47.93
2022-09-07T13:58:53.304Z,47.62
2022-09-07T13:59:55.700Z,47.93
2022-09-07T14:01:00.563Z,49.95
2022-09-07T14:02:02.248Z,47.83
2022-09-07T14:03:06.313Z,50.75
2022-09-07T14:04:21.777Z,47.74
2022-09-07T14:05:23.649Z,48.77
2022-09-07T14:06:31.491Z,48.21
2022-09-07T14:07:32.932Z,49.70
2022-09-07T14:08:39.217Z,47.34
2022-09-07T14:09:41.658Z,47.54
2022-09-07T14:10:47.856Z,48.18
2022-09-07T14:11:52.413Z,46.35
2022-09-07T14:13:04.758Z,46.62
2022-09-07T14:14:12.818Z,46.13
2022-09-07T14:15:23.537Z,47.05
2022-09-07T14:16:25.113Z,46.11
2022-09-07T14:17:27.924Z,44.76
2022-09-07T14:18:31.066Z,44.58
2022-09-07T14:19:36.789Z,47.39
2022-09-07T14:20:41.641Z,45.10
2022-09-07T14:21:43.214Z,45.66
2022-09-07T14:22:46.685Z,44.07
2022-09-07T14:23:51.403Z,44.75
2022-09-07T14:24:54.366Z,45.96
2022-09-07T14:26:16.636Z,45.05
2022-09-07T14:27:22.436Z,45.14
2022-09-07T14:28:32.186Z,44.14
2022-09-07T14:29:35.449Z,43.66
2022-09-07T14:30:37.523Z,43.21
2022-09-07T14:31:39.240Z,43.32
2022-09-07T14:32:41.024Z,44.21
2022-09-07T14:33:47.101Z,43.71
2022-09-07T14:34:49.392Z,42.95
2022-09-07T14:35:51.077Z,43.63
2022-09-07T14:36:53.104Z,43.78
2022-09-07T14:37:58.078Z,46.38
2022-09-07T14:39:05.339Z,43.83
2022-09-07T14:40:15.204Z,42.42
2022-09-07T14:41:18.671Z,43.37
2022-09-07T14:42:23.880Z,42.08
2022-09-07T14:43:31.728Z,41.07
2022-09-07T14:44:36.425Z,40.88
2022-09-07T14:45:38.128Z,41.91
2022-09-07T14:46:46.357Z,39.66
2022-09-07T14:47:50.497Z,41.32
2022-09-07T14:48:55.750Z,40.13
2022-09-07T14:50:01.104Z,41.42
2022-09-07T14:51:27.061Z,45.63
2022-09-07T14:52:31.304Z,44.27
2022-09-07T14:53:34.847Z,42.07
2022-09-07T14:54:36.797Z,42.25
2022-09-07T14:55:40.648Z,41.65
2022-09-07T14:56:42.186Z,42.24
2022-09-07T14:57:45.290Z,41.81
2022-09-07T14:58:47.115Z,41.84
2022-09-07T14:59:48.752Z,41.87
2022-09-07T15:02:33.216Z,44.48
2022-09-07T15:03:52.085Z,44.85
2022-09-07T15:05:25.930Z,44.02
2022-09-07T15:08:01.971Z,41.90
2022-09-07T15:09:04.618Z,44.27